createdAt,value
2022-09-27T00:01:13.064Z,1.80
2022-09-27T00:03:41.150Z,2.47
2022-09-27T00:06:14.952Z,1.33
2022-09-27T00:08:43.626Z,1.38
2022-09-27T00:11:18.768Z,1.48
2022-09-27T00:13:46.940Z,1.85
2022-09-27T00:16:15.134Z,1.40
2022-09-27T00:18:43.587Z,1.48
2022-09-27T00:21:14.854Z,1.13
2022-09-27T00:23:43.335Z,1.52
2022-09-27T00:26:14.231Z,1.30
2022-09-27T00:28:42.756Z,1.73
2022-09-27T00:31:21.928Z,1.70
2022-09-27T00:33:50.857Z,1.45
2022-09-27T00:36:21.955Z,1.60
2022-09-27T00:38:50.647Z,1.90
2022-09-27T00:41:21.478Z,1.50
2022-09-27T00:43:52.030Z,1.80
2022-09-27T00:46:24.503Z,1.80
2022-09-27T00:49:04.900Z,1.75
2022-09-27T00:54:06.388Z,1.92
2022-09-27T00:56:35.084Z,2.25
2022-09-27T00:59:08.189Z,2.00
2022-09-27T01:01:37.519Z,2.00
2022-09-27T01:04:09.468Z,2.92
2022-09-27T01:06:39.567Z,2.78
2022-09-27T01:09:09.072Z,2.30
2022-09-27T01:11:44.167Z,2.80
2022-09-27T01:14:30.080Z,2.85
2022-09-27T01:17:07.716Z,2.67
2022-09-27T01:20:18.855Z,2.92
2022-09-27T01:23:03.517Z,2.97
2022-09-27T01:25:52.097Z,3.03
2022-09-27T01:28:33.088Z,3.13
2022-09-27T01:31:08.699Z,2.78
2022-09-27T01:33:47.746Z,3.38
2022-09-27T01:36:25.252Z,3.67
2022-09-27T01:39:02.181Z,3.95
2022-09-27T01:41:46.535Z,4.10
2022-09-27T01:44:38.769Z,4.45
2022-09-27T01:47:18.110Z,4.55
2022-09-27T01:49:57.487Z,4.50
2022-09-27T01:52:33.143Z,4.28
2022-09-27T01:55:03.726Z,4.40
2022-09-27T01:57:51.886Z,4.45
2022-09-27T02:00:25.426Z,5.15
2022-09-27T02:03:01.713Z,6.05
2022-09-27T02:05:42.921Z,7.45
2022-09-27T02:08:35.299Z,7.57
2022-09-27T02:11:12.044Z,7.90
2022-09-27T02:13:49.490Z,7.63
2022-09-27T02:16:49.724Z,7.50
2022-09-27T02:19:32.418Z,8.25
2022-09-27T02:22:09.144Z,7.93
2022-09-27T02:24:42.766Z,7.55
2022-09-27T02:27:15.347Z,6.60
2022-09-27T02:29:51.709Z,6.10
2022-09-27T02:32:20.007Z,6.03
2022-09-27T02:34:52.465Z,6.45
2022-09-27T02:37:20.465Z,6.15
2022-09-27T02:39:49.086Z,5.55
2022-09-27T02:42:17.267Z,6.32
2022-09-27T02:44:45.981Z,5.07
2022-09-27T02:47:47.113Z,4.45
2022-09-27T02:50:43.380Z,4.53
2022-09-27T02:53:39.957Z,3.90
2022-09-27T02:59:36.381Z,3.50
2022-09-27T03:05:28.413Z,3.08
2022-09-27T03:07:56.561Z,2.80
2022-09-27T03:10:27.147Z,2.70
2022-09-27T03:12:55.874Z,2.40
2022-09-27T03:15:23.978Z,2.40
2022-09-27T03:18:01.086Z,1.80
2022-09-27T03:21:03.292Z,1.95
2022-09-27T03:23:31.320Z,1.70
2022-09-27T03:25:59.580Z,1.70
2022-09-27T03:28:29.766Z,1.77
2022-09-27T03:30:58.387Z,1.77
2022-09-27T03:33:47.255Z,1.50
2022-09-27T03:36:16.890Z,1.40
2022-09-27T03:38:45.011Z,1.65
2022-09-27T03:41:17.433Z,1.17
2022-09-27T03:43:45.722Z,1.23
2022-09-27T03:46:13.884Z,1.20
2022-09-27T03:48:42.727Z,1.00
2022-09-27T03:51:12.686Z,1.27
2022-09-27T03:53:42.929Z,1.35
2022-09-27T03:56:11.654Z,1.38
2022-09-27T03:58:40.143Z,1.48
2022-09-27T04:01:09.167Z,1.80
2022-09-27T04:03:38.758Z,1.88
2022-09-27T04:06:07.041Z,1.92
2022-09-27T04:08:40.875Z,2.40
2022-09-27T04:11:08.879Z,2.33
2022-09-27T04:13:37.151Z,2.22
2022-09-27T04:16:05.680Z,2.20
2022-09-27T04:18:33.618Z,2.42
2022-09-27T04:21:20.618Z,2.58
2022-09-27T04:23:54.376Z,2.65
2022-09-27T04:26:26.211Z,2.28
2022-09-27T04:29:05.030Z,2.65
2022-09-27T04:31:39.405Z,2.60
2022-09-27T04:34:45.586Z,2.53
2022-09-27T04:37:15.642Z,2.67
2022-09-27T04:39:51.728Z,3.15
2022-09-27T04:42:20.532Z,2.42
2022-09-27T04:44:48.898Z,2.58
2022-09-27T04:47:17.484Z,3.13
2022-09-27T04:49:45.475Z,3.28
2022-09-27T04:52:15.624Z,3.25
2022-09-27T04:57:14.659Z,3.00
2022-09-27T04:59:44.326Z,3.17
2022-09-27T05:02:13.881Z,3.50
2022-09-27T05:05:01.882Z,3.88
2022-09-27T05:07:36.556Z,3.05
2022-09-27T05:10:10.892Z,2.75
2022-09-27T05:12:40.308Z,3.67
2022-09-27T05:15:10.145Z,3.03
2022-09-27T05:18:13.015Z,3.40
2022-09-27T05:20:59.801Z,3.92
2022-09-27T05:23:34.016Z,3.90
2022-09-27T05:26:05.070Z,3.53
2022-09-27T05:28:35.245Z,3.42
2022-09-27T05:31:03.868Z,3.72
2022-09-27T05:33:34.423Z,3.03
2022-09-27T05:36:33.400Z,2.90
2022-09-27T05:39:01.400Z,2.80
2022-09-27T05:41:32.805Z,2.95
2022-09-27T05:44:02.732Z,3.15
2022-09-27T05:46:30.922Z,3.33
2022-09-27T05:48:59.436Z,3.65
2022-09-27T05:51:27.359Z,3.22
2022-09-27T05:53:55.549Z,3.70
2022-09-27T05:56:28.623Z,3.00
2022-09-27T05:59:30.213Z,2.45
2022-09-27T06:02:18.430Z,3.00
2022-09-27T06:05:19.799Z,2.53
2022-09-27T06:08:21.085Z,2.00
2022-09-27T06:10:52.929Z,2.20
2022-09-27T06:13:21.071Z,1.85
2022-09-27T06:15:51.537Z,1.55
2022-09-27T06:18:19.509Z,2.20
2022-09-27T06:20:50.506Z,2.33
2022-09-27T06:23:20.070Z,2.58
2022-09-27T06:25:50.624Z,2.03
2022-09-27T06:28:51.249Z,2.30
2022-09-27T06:31:21.857Z,2.40
2022-09-27T06:34:09.310Z,2.60
2022-09-27T06:36:37.313Z,2.25
2022-09-27T06:39:05.709Z,3.67
2022-09-27T06:41:41.843Z,2.40
2022-09-27T06:44:36.026Z,2.53
2022-09-27T06:47:38.575Z,2.45
2022-09-27T06:50:18.487Z,2.60
2022-09-27T06:52:50.536Z,2.70
2022-09-27T06:55:19.774Z,2.63
2022-09-27T06:58:05.216Z,2.80
2022-09-27T07:00:33.747Z,2.60
2022-09-27T07:03:18.894Z,2.70
2022-09-27T07:06:06.855Z,2.40
2022-09-27T07:08:53.229Z,2.33
2022-09-27T07:11:23.754Z,2.28
2022-09-27T07:13:53.491Z,2.53
2022-09-27T07:16:21.781Z,2.28
2022-09-27T07:18:51.445Z,2.20
2022-09-27T07:21:19.766Z,2.03
2022-09-27T07:23:48.615Z,2.65
2022-09-27T07:26:17.349Z,1.85
2022-09-27T07:28:46.009Z,1.77
2022-09-27T07:31:17.754Z,1.95
2022-09-27T07:33:46.715Z,1.87
2022-09-27T07:36:16.323Z,1.80
2022-09-27T07:38:47.532Z,1.80
2022-09-27T07:41:18.542Z,1.35
2022-09-27T07:43:46.586Z,1.50
2022-09-27T07:46:16.208Z,1.52
2022-09-27T07:48:55.362Z,1.38
2022-09-27T07:51:43.524Z,1.50
2022-09-27T07:54:27.896Z,1.70
2022-09-27T07:57:15.127Z,1.50
2022-09-27T07:59:50.059Z,1.23
2022-09-27T08:02:21.652Z,1.30
2022-09-27T08:04:51.532Z,1.27
2022-09-27T08:07:21.610Z,1.20
2022-09-27T08:09:53.329Z,1.10
2022-09-27T08:12:22.545Z,1.33
2022-09-27T08:14:51.229Z,1.20
2022-09-27T08:17:20.223Z,1.00
2022-09-27T08:20:08.921Z,1.23
2022-09-27T08:22:49.639Z,1.60
2022-09-27T08:25:44.223Z,1.58
2022-09-27T08:28:29.156Z,1.80
2022-09-27T08:31:07.179Z,1.35
2022-09-27T08:33:41.064Z,1.58
2022-09-27T08:36:12.683Z,2.63
2022-09-27T08:38:43.188Z,1.58
2022-09-27T08:43:55.197Z,1.30
2022-09-27T08:46:32.866Z,1.48
2022-09-27T08:49:08.630Z,1.83
2022-09-27T08:51:38.451Z,1.60
2022-09-27T08:54:12.933Z,1.70
2022-09-27T08:56:41.335Z,1.58
2022-09-27T08:59:15.391Z,1.60
2022-09-27T09:01:44.772Z,1.42
2022-09-27T09:04:27.576Z,1.60
2022-09-27T09:07:04.108Z,1.80
2022-09-27T09:09:45.845Z,1.55
2022-09-27T09:12:49.912Z,2.00
2022-09-27T09:15:31.992Z,1.50
2022-09-27T09:18:34.841Z,1.10
2022-09-27T09:21:24.942Z,1.60
2022-09-27T09:24:11.052Z,1.70
2022-09-27T09:26:46.953Z,2.00
2022-09-27T09:29:30.428Z,1.58
2022-09-27T09:32:09.112Z,1.83
2022-09-27T09:34:41.153Z,1.70
2022-09-27T09:37:17.182Z,1.40
2022-09-27T09:39:48.215Z,1.50
2022-09-27T09:42:26.598Z,1.42
2022-09-27T09:45:00.703Z,1.30
2022-09-27T09:47:37.304Z,1.45
2022-09-27T09:50:18.690Z,0.85
2022-09-27T09:52:52.561Z,1.75
2022-09-27T09:55:24.697Z,1.38
2022-09-27T09:58:16.528Z,1.40
2022-09-27T10:00:51.721Z,1.50
2022-09-27T10:03:20.355Z,1.30
2022-09-27T10:05:48.942Z,1.13
2022-09-27T10:08:21.277Z,1.30
2022-09-27T10:10:56.252Z,1.10
2022-09-27T10:13:47.943Z,1.27
2022-09-27T10:16:19.665Z,1.42
2022-09-27T10:18:50.981Z,1.20
2022-09-27T10:21:23.453Z,1.33
2022-09-27T10:24:10.453Z,1.10
2022-09-27T10:27:00.967Z,0.80
2022-09-27T10:29:37.845Z,1.10
2022-09-27T10:32:23.509Z,1.70
2022-09-27T10:34:58.287Z,1.65
2022-09-27T10:37:26.310Z,1.25
2022-09-27T10:40:26.918Z,1.17
2022-09-27T10:42:56.029Z,2.20
2022-09-27T10:45:32.544Z,1.40
2022-09-27T10:48:07.846Z,1.58
2022-09-27T10:50:59.139Z,1.10
2022-09-27T10:53:50.109Z,1.42
2022-09-27T10:56:33.872Z,1.05
2022-09-27T10:59:04.096Z,1.10
2022-09-27T11:01:46.024Z,1.08
2022-09-27T11:04:24.453Z,1.13
2022-09-27T11:06:53.016Z,1.13
2022-09-27T11:09:26.986Z,0.95
2022-09-27T11:12:12.150Z,0.60
2022-09-27T11:14:41.586Z,0.90
2022-09-27T11:17:17.687Z,4.25
2022-09-27T11:20:18.150Z,0.90
2022-09-27T11:23:15.841Z,1.08
2022-09-27T11:25:53.208Z,1.05
2022-09-27T11:28:31.708Z,0.80
2022-09-27T11:31:10.671Z,0.88
2022-09-27T11:34:04.499Z,0.95
2022-09-27T11:36:54.601Z,1.10
2022-09-27T11:39:30.855Z,0.30
2022-09-27T11:42:23.681Z,0.20
2022-09-27T11:48:24.496Z,0.90
2022-09-27T11:51:09.465Z,0.40
2022-09-27T11:53:51.340Z,0.50
2022-09-27T11:56:35.842Z,0.60
2022-09-27T11:59:24.919Z,0.90
2022-09-27T12:02:02.058Z,1.17
2022-09-27T12:05:01.801Z,1.00
2022-09-27T12:07:44.704Z,0.60
2022-09-27T12:10:16.917Z,0.77
2022-09-27T12:12:47.818Z,0.88
2022-09-27T12:15:20.320Z,1.10
2022-09-27T12:17:52.223Z,1.65
2022-09-27T12:20:23.444Z,1.40
2022-09-27T12:23:00.042Z,2.05
2022-09-27T12:25:53.417Z,2.65
2022-09-27T12:28:37.116Z,3.08
2022-09-27T12:31:29.050Z,3.47
2022-09-27T12:34:16.213Z,3.17
2022-09-27T12:36:52.574Z,3.90
2022-09-27T12:39:26.909Z,4.25
2022-09-27T12:42:14.400Z,4.47
2022-09-27T12:44:50.567Z,4.60
2022-09-27T12:47:42.528Z,5.47
2022-09-27T12:50:26.046Z,4.32
2022-09-27T12:52:59.439Z,2.80
2022-09-27T12:56:10.839Z,3.70
2022-09-27T12:59:04.352Z,3.40
2022-09-27T13:01:47.915Z,4.38
2022-09-27T13:04:38.310Z,3.58
2022-09-27T13:07:31.360Z,3.55
2022-09-27T13:12:49.448Z,4.00
2022-09-27T13:15:22.535Z,4.32
2022-09-27T13:17:53.332Z,4.35
2022-09-27T13:20:48.279Z,3.83
2022-09-27T13:24:02.116Z,4.78
2022-09-27T13:26:51.148Z,4.00
2022-09-27T13:29:34.639Z,4.68
2022-09-27T13:32:28.285Z,3.85
2022-09-27T13:35:14.065Z,3.97
2022-09-27T13:37:50.757Z,3.20
2022-09-27T13:40:31.632Z,3.13
2022-09-27T13:43:48.217Z,3.00
2022-09-27T13:46:28.004Z,2.75
2022-09-27T13:49:00.443Z,2.50
2022-09-27T13:51:48.013Z,3.13
2022-09-27T13:54:50.711Z,3.50
2022-09-27T13:57:45.361Z,2.92
2022-09-27T14:00:23.879Z,3.42
2022-09-27T14:03:06.665Z,2.88
2022-09-27T14:05:42.691Z,3.67
2022-09-27T14:08:24.976Z,3.75
2022-09-27T14:10:53.971Z,4.03
2022-09-27T14:13:25.519Z,3.25
2022-09-27T14:16:05.516Z,3.78
2022-09-27T14:18:48.060Z,3.75
2022-09-27T14:21:29.789Z,3.40
2022-09-27T14:24:30.620Z,3.13
2022-09-27T14:27:13.833Z,3.15
2022-09-27T14:29:44.942Z,2.83
2022-09-27T14:32:17.609Z,3.42
2022-09-27T14:35:33.039Z,3.00
2022-09-27T14:38:15.730Z,3.63
2022-09-27T14:40:59.617Z,2.90
2022-09-27T14:43:29.278Z,3.20
2022-09-27T14:46:01.074Z,2.63
2022-09-27T14:48:32.302Z,2.65
2022-09-27T14:51:06.151Z,2.38
2022-09-27T14:53:37.326Z,1.90
2022-09-27T14:56:08.290Z,1.73
2022-09-27T14:58:47.579Z,1.60
2022-09-27T15:01:17.711Z,1.33
2022-09-27T15:03:47.053Z,0.70
2022-09-27T15:06:17.022Z,1.00
2022-09-27T15:08:49.224Z,0.77
2022-09-27T15:11:19.261Z,1.13
2022-09-27T15:13:51.708Z,1.50
2022-09-27T15:16:23.116Z,0.70
2022-09-27T15:19:01.335Z,1.10
2022-09-27T15:21:33.998Z,1.40
2022-09-27T15:24:02.803Z,1.50
2022-09-27T15:26:38.878Z,0.93
2022-09-27T15:29:07.840Z,0.95
2022-09-27T15:31:37.691Z,1.05
2022-09-27T15:34:06.990Z,1.42
2022-09-27T15:37:05.043Z,1.00
2022-09-27T15:39:35.086Z,1.20
2022-09-27T15:42:08.943Z,1.20
2022-09-27T15:44:45.937Z,1.17
2022-09-27T15:47:40.291Z,1.80
2022-09-27T15:50:34.507Z,1.77
2022-09-27T15:53:06.890Z,1.65
2022-09-27T15:55:37.834Z,1.45
2022-09-27T15:58:08.141Z,1.52
2022-09-27T16:03:05.429Z,1.45
2022-09-27T16:05:33.249Z,1.73
2022-09-27T16:08:01.426Z,1.35
2022-09-27T16:10:39.885Z,1.80
2022-09-27T16:13:07.882Z,1.88
2022-09-27T16:15:36.038Z,1.80
2022-09-27T16:18:04.108Z,3.65
2022-09-27T16:20:33.240Z,3.10
2022-09-27T16:23:01.048Z,2.25
2022-09-27T16:25:29.077Z,2.08
2022-09-27T16:28:00.865Z,1.30
2022-09-27T16:30:30.049Z,1.33
2022-09-27T16:32:58.804Z,1.35
2022-09-27T16:35:29.226Z,1.10
2022-09-27T16:37:58.377Z,1.50
2022-09-27T16:40:28.165Z,0.70
2022-09-27T16:42:56.228Z,0.80
2022-09-27T16:45:34.307Z,1.17
2022-09-27T16:48:02.671Z,0.70
2022-09-27T16:50:47.948Z,0.80
2022-09-27T16:53:15.975Z,1.30
2022-09-27T16:55:44.058Z,1.50
2022-09-27T16:58:12.162Z,1.77
2022-09-27T17:00:42.092Z,2.85
2022-09-27T17:03:10.284Z,2.83
2022-09-27T17:05:38.269Z,1.67
2022-09-27T17:08:06.293Z,1.83
2022-09-27T17:10:35.758Z,3.10
2022-09-27T17:13:03.867Z,2.25
2022-09-27T17:15:31.766Z,2.75
2022-09-27T17:18:01.162Z,2.40
2022-09-27T17:20:29.134Z,4.13
2022-09-27T17:22:57.159Z,5.15
2022-09-27T17:25:25.231Z,3.63
2022-09-27T17:27:53.263Z,4.18
2022-09-27T17:30:21.209Z,3.83
2022-09-27T17:32:49.002Z,2.80
2022-09-27T17:35:18.263Z,2.90
2022-09-27T17:37:46.235Z,3.03
2022-09-27T17:40:16.212Z,2.28
2022-09-27T17:42:44.191Z,2.53
2022-09-27T17:45:12.268Z,3.13
2022-09-27T17:47:57.704Z,3.22
2022-09-27T17:50:28.474Z,2.45
2022-09-27T17:52:58.820Z,3.08
2022-09-27T17:57:55.141Z,2.58
2022-09-27T18:00:23.081Z,3.13
2022-09-27T18:02:51.241Z,2.50
2022-09-27T18:05:21.191Z,2.60
2022-09-27T18:07:50.588Z,2.65
2022-09-27T18:10:18.882Z,2.67
2022-09-27T18:12:46.849Z,2.70
2022-09-27T18:15:16.983Z,2.67
2022-09-27T18:17:46.019Z,2.05
2022-09-27T18:20:13.860Z,2.40
2022-09-27T18:22:41.875Z,2.88
2022-09-27T18:25:12.179Z,2.70
2022-09-27T18:30:09.650Z,2.58
2022-09-27T18:32:37.527Z,2.10
2022-09-27T18:35:06.906Z,2.05
2022-09-27T18:37:34.866Z,1.90
2022-09-27T18:40:03.014Z,2.08
2022-09-27T18:42:32.387Z,2.33
2022-09-27T18:45:00.295Z,3.30
2022-09-27T18:47:28.291Z,3.92
2022-09-27T18:49:56.192Z,4.57
2022-09-27T18:52:24.180Z,4.80
2022-09-27T18:54:52.068Z,5.20
2022-09-27T18:57:20.175Z,5.88
2022-09-27T18:59:49.647Z,6.85
2022-09-27T19:02:17.598Z,6.93
2022-09-27T19:04:45.546Z,8.27
2022-09-27T19:07:13.470Z,7.75
2022-09-27T19:09:41.271Z,7.40
2022-09-27T19:12:09.059Z,6.60
2022-09-27T19:14:36.959Z,7.15
2022-09-27T19:17:06.224Z,7.28
2022-09-27T19:19:34.120Z,8.20
2022-09-27T19:22:02.435Z,9.10
2022-09-27T19:24:30.302Z,10.13
2022-09-27T19:26:58.075Z,10.35
2022-09-27T19:29:26.547Z,10.63
2022-09-27T19:31:54.550Z,11.43
2022-09-27T19:34:23.870Z,9.93
2022-09-27T19:36:51.746Z,10.98
2022-09-27T19:39:19.586Z,9.20
2022-09-27T19:41:47.508Z,8.35
2022-09-27T19:44:15.521Z,7.88
2022-09-27T19:46:45.465Z,7.35
2022-09-27T19:49:13.344Z,9.05
2022-09-27T19:51:42.652Z,8.57
2022-09-27T19:54:11.072Z,8.90
2022-09-27T19:56:39.087Z,10.35
2022-09-27T19:59:07.462Z,12.63
2022-09-27T20:01:35.622Z,10.02
2022-09-27T20:04:03.844Z,11.15
2022-09-27T20:06:32.668Z,13.07
2022-09-27T20:09:03.553Z,13.07
2022-09-27T20:11:33.305Z,14.13
2022-09-27T20:14:01.511Z,14.77
2022-09-27T20:16:29.416Z,14.10
2022-09-27T20:18:58.734Z,14.77
2022-09-27T20:21:28.932Z,13.55
2022-09-27T20:23:58.276Z,14.10
2022-09-27T20:26:29.204Z,14.88
2022-09-27T20:28:58.785Z,14.85
2022-09-27T20:31:28.484Z,14.55
2022-09-27T20:33:57.070Z,15.10
2022-09-27T20:36:26.672Z,14.00
2022-09-27T20:39:01.178Z,14.07
2022-09-27T20:41:33.668Z,13.48
2022-09-27T20:44:04.485Z,15.10
2022-09-27T20:46:33.230Z,14.50
2022-09-27T20:49:03.006Z,13.50
2022-09-27T20:51:33.297Z,15.60
2022-09-27T20:56:32.912Z,15.50
2022-09-27T20:59:04.196Z,15.70
2022-09-27T21:01:33.085Z,14.55
2022-09-27T21:04:03.462Z,14.38
2022-09-27T21:09:01.543Z,15.05
2022-09-27T21:11:29.387Z,16.85
2022-09-27T21:13:58.634Z,17.40
2022-09-27T21:16:28.823Z,16.20
2022-09-27T21:18:58.766Z,15.57
2022-09-27T21:21:27.376Z,17.73
2022-09-27T21:23:57.415Z,15.88
2022-09-27T21:26:26.884Z,15.43
2022-09-27T21:28:56.512Z,15.98
2022-09-27T21:31:27.658Z,15.50
2022-09-27T21:33:59.014Z,16.73
2022-09-27T21:36:29.088Z,16.40
2022-09-27T21:38:57.960Z,15.10
2022-09-27T21:41:26.661Z,17.13
2022-09-27T21:43:55.110Z,16.77
2022-09-27T21:46:26.465Z,16.83
2022-09-27T21:48:57.066Z,15.95
2022-09-27T21:51:27.261Z,14.82
2022-09-27T21:53:57.269Z,15.60
2022-09-27T21:56:29.260Z,14.82
2022-09-27T21:58:57.156Z,16.60
2022-09-27T22:01:29.461Z,15.68
2022-09-27T22:03:59.311Z,14.65
2022-09-27T22:06:28.747Z,14.85
2022-09-27T22:08:57.924Z,14.37
2022-09-27T22:11:27.661Z,13.90
2022-09-27T22:13:55.666Z,12.88
2022-09-27T22:16:24.312Z,12.65
2022-09-27T22:18:56.249Z,10.38
2022-09-27T22:21:27.503Z,11.10
2022-09-27T22:23:56.224Z,13.00
2022-09-27T22:26:26.594Z,12.85
2022-09-27T22:31:23.326Z,14.18
2022-09-27T22:33:54.473Z,15.02
2022-09-27T22:36:22.980Z,14.48
2022-09-27T22:38:51.482Z,13.93
2022-09-27T22:41:20.277Z,12.63
2022-09-27T22:43:48.390Z,12.65
2022-09-27T22:46:16.710Z,12.18
2022-09-27T22:48:44.952Z,10.80
2022-09-27T22:51:14.378Z,9.73
2022-09-27T22:53:42.359Z,8.50
2022-09-27T22:56:14.797Z,8.00
2022-09-27T22:58:44.183Z,7.25
2022-09-27T23:01:14.817Z,7.63
2022-09-27T23:03:43.316Z,6.82
2022-09-27T23:06:11.894Z,7.07
2022-09-27T23:08:41.520Z,7.00
2022-09-27T23:11:11.423Z,7.97
2022-09-27T23:13:41.763Z,8.65
2022-09-27T23:18:38.954Z,7.32
2022-09-27T23:21:08.831Z,8.27
2022-09-27T23:23:38.218Z,8.23
2022-09-27T23:26:09.850Z,7.80
2022-09-27T23:28:37.962Z,8.00
2022-09-27T23:31:08.386Z,7.25
2022-09-27T23:33:36.974Z,6.13
2022-09-27T23:36:05.585Z,6.82
2022-09-27T23:38:34.081Z,5.88
2022-09-27T23:41:02.097Z,5.90
2022-09-27T23:43:31.454Z,5.60
2022-09-27T23:45:59.297Z,5.50
2022-09-27T23:48:27.192Z,5.30
2022-09-27T23:50:55.412Z,6.68
2022-09-27T23:53:24.152Z,5.45
2022-09-27T23:56:02.170Z,6.00
2022-09-27T23:58:33.852Z,5.70
